Time;durP1;ratioP1;P1;durP2;ratioP2;P2;SDS_P1;SDS_P2;PMS_P1;PMS_P2;Temp;Humidity;BMP_temperature;BMP_pressure;BME280_temperature;BME280_humidity;BME280_pressure;Samples;Min_cycle;Max_cycle;Signal;HPM_P1;HPM_P2
2021/12/28 00:01:52;;;;;;;1999.90;999.90;;;;;;;-4.86;97.12;161109.66;5040723;28;20076;-66
2021/12/28 00:04:19;;;;;;;1999.90;999.90;;;;;;;-4.48;96.29;161210.44;5041180;28;20045;-65
2021/12/28 00:06:46;;;;;;;1999.90;999.90;;;;;;;-4.72;97.24;161147.75;5042336;28;20114;-65
2021/12/28 00:09:12;;;;;;;1999.90;999.90;;;;;;;-5.08;98.30;161051.09;5040418;28;20053;-65
2021/12/28 00:11:39;;;;;;;1999.90;999.90;;;;;;;-5.59;100.00;160916.31;5040805;28;20095;-65
2021/12/28 00:14:07;;;;;;;1999.90;999.90;;;;;;;-5.09;100.00;161049.75;5044870;28;20126;-65
2021/12/28 00:19:19;;;;;;;1999.90;999.90;;;;;;;-4.61;98.58;161177.75;5039224;28;20470;-65
2021/12/28 00:21:46;;;;;;;1999.90;999.90;;;;;;;-4.49;98.98;161207.75;5044989;28;20052;-66
2021/12/28 00:24:14;;;;;;;1999.90;999.90;;;;;;;-4.53;99.77;161196.84;5040867;28;20088;-65
2021/12/28 00:26:40;;;;;;;1999.90;999.90;;;;;;;-4.34;99.53;161247.25;5044973;28;20080;-65
2021/12/28 00:29:07;;;;;;;1999.90;999.90;;;;;;;-5.02;100.00;161068.75;5042387;28;20084;-65
2021/12/28 00:31:33;;;;;;;1999.90;999.90;;;;;;;-5.17;100.00;161029.28;5037819;28;20183;-65
2021/12/28 00:34:00;;;;;;;1999.90;999.90;;;;;;;-4.82;100.00;161120.56;5040548;28;20434;-65
2021/12/28 00:36:27;;;;;;;1999.90;999.90;;;;;;;-5.18;100.00;161026.59;5045128;28;20093;-65
2021/12/28 00:38:53;;;;;;;1999.90;999.90;;;;;;;-4.75;100.00;161139.59;5041919;28;20083;-65
2021/12/28 00:41:20;;;;;;;1999.90;999.90;;;;;;;-4.87;100.00;161106.91;5035727;28;20131;-65
2021/12/28 00:43:47;;;;;;;1999.90;999.90;;;;;;;-4.93;100.00;161091.94;5040050;28;20111;-65
2021/12/28 00:46:13;;;;;;;1999.90;999.90;;;;;;;-4.82;100.00;161120.56;5042108;28;20449;-66
2021/12/28 00:48:40;;;;;;;1999.90;999.90;;;;;;;-4.62;100.00;161173.66;5045451;28;20132;-66
2021/12/28 00:51:07;;;;;;;1999.90;999.90;;;;;;;-4.77;100.00;161135.50;5042547;28;20134;-66
2021/12/28 00:53:33;;;;;;;1999.90;999.90;;;;;;;-4.92;100.00;161093.31;5039349;28;20393;-66
2021/12/28 00:56:00;;;;;;;1999.90;999.90;;;;;;;-5.19;100.00;161022.50;5041146;28;20107;-66
2021/12/28 00:58:29;;;;;;;1999.90;999.90;;;;;;;-5.40;100.00;160966.69;5037571;28;20099;-66
2021/12/28 01:00:56;;;;;;;1999.90;999.90;;;;;;;-5.34;100.00;160984.38;5033790;28;20469;-65
2021/12/28 01:03:22;;;;;;;1999.90;999.90;;;;;;;-5.25;100.00;161006.19;5049273;28;20088;-65
2021/12/28 01:05:49;;;;;;;1999.90;999.90;;;;;;;-4.96;100.00;161085.16;5039811;28;20381;-65
2021/12/28 01:08:16;;;;;;;1999.90;999.90;;;;;;;-5.01;100.00;161071.50;5037699;28;20079;-66
2021/12/28 01:10:49;;;;;;;1999.90;999.90;;;;;;;-4.84;100.00;161116.47;5045728;28;20065;-67
2021/12/28 01:13:18;;;;;;;1999.90;999.90;;;;;;;-4.29;100.00;161262.25;5040106;28;20080;-64
2021/12/28 01:15:45;;;;;;;1999.90;999.90;;;;;;;-4.85;100.00;161113.75;5036400;28;20127;-65
2021/12/28 01:18:12;;;;;;;1999.90;999.90;;;;;;;-4.58;100.00;161183.19;5036343;28;20061;-66
2021/12/28 01:20:40;;;;;;;1999.90;999.90;;;;;;;-4.40;100.00;161232.25;5043305;28;20080;-65
2021/12/28 01:23:07;;;;;;;1999.90;999.90;;;;;;;-3.87;100.00;161371.25;5035086;28;20045;-65
2021/12/28 01:25:34;;;;;;;1999.90;999.90;;;;;;;-4.81;100.00;161123.25;5042058;28;20481;-65
2021/12/28 01:28:01;;;;;;;1999.90;999.90;;;;;;;-4.29;100.00;161262.25;5036283;28;20057;-66
2021/12/28 01:30:28;;;;;;;1999.90;999.90;;;;;;;-5.25;100.00;161007.53;5044410;28;20049;-65
2021/12/28 01:32:59;;;;;;;1999.90;999.90;;;;;;;-4.83;100.00;161117.81;5042793;28;20080;-65
2021/12/28 01:35:27;;;;;;;1999.90;999.90;;;;;;;-4.44;100.00;161222.75;5036863;28;20100;-66
2021/12/28 01:37:54;;;;;;;1999.90;999.90;;;;;;;-4.12;100.00;161305.84;5046939;28;20091;-66
2021/12/28 01:40:25;;;;;;;1999.90;999.90;;;;;;;-4.36;100.00;161241.78;5044846;28;20076;-66
2021/12/28 01:43:04;;;;;;;1999.90;999.90;;;;;;;-4.27;100.00;161267.69;5040699;28;20489;-66
2021/12/28 01:45:46;;;;;;;1999.90;999.90;;;;;;;-4.43;100.00;161224.09;5047889;28;20073;-67
2021/12/28 01:48:25;;;;;;;1999.90;999.90;;;;;;;-4.64;100.00;161169.59;5040449;28;20165;-67
2021/12/28 01:50:56;;;;;;;1999.90;999.90;;;;;;;-4.60;100.00;161180.50;5044794;28;20115;-67
2021/12/28 01:53:23;;;;;;;1999.90;999.90;;;;;;;-4.65;100.00;161166.84;5043706;28;20516;-65
2021/12/28 01:55:52;;;;;;;1999.90;999.90;;;;;;;-4.49;100.00;161207.75;5044560;28;20084;-65
2021/12/28 01:58:19;;;;;;;1999.90;999.90;;;;;;;-4.21;100.00;161281.28;5036216;28;20515;-65
2021/12/28 02:00:49;;;;;;;1999.90;999.90;;;;;;;-3.87;99.27;161371.25;5048652;28;20090;-65
2021/12/28 02:03:17;;;;;;;1999.90;999.90;;;;;;;-4.01;99.99;161335.81;5041667;28;20144;-65
2021/12/28 02:05:45;;;;;;;1999.90;999.90;;;;;;;-4.31;100.00;161256.78;5043962;28;20114;-66
2021/12/28 02:08:13;;;;;;;1999.90;999.90;;;;;;;-4.17;100.00;161292.19;5047473;28;20126;-66
2021/12/28 02:10:41;;;;;;;1999.90;999.90;;;;;;;-4.45;100.00;161220.00;5041993;28;20481;-66
2021/12/28 02:13:08;;;;;;;1999.90;999.90;;;;;;;-3.91;100.00;161363.06;5036437;28;20088;-67
2021/12/28 02:15:36;;;;;;;1999.90;999.90;;;;;;;-4.05;99.72;161323.56;5041970;28;20053;-66
2021/12/28 02:18:05;;;;;;;1999.90;999.90;;;;;;;-4.12;99.64;161307.22;5048676;28;20079;-66
2021/12/28 02:20:32;;;;;;;1999.90;999.90;;;;;;;-3.62;98.50;161439.41;5048147;28;20093;-67
2021/12/28 02:22:59;;;;;;;1999.90;999.90;;;;;;;-3.89;97.78;161368.50;5046792;28;20104;-66
2021/12/28 02:25:25;;;;;;;1999.90;999.90;;;;;;;-4.09;100.00;161314.03;5033194;28;20462;-66
2021/12/28 02:27:52;;;;;;;1999.90;999.90;;;;;;;-4.17;100.00;161292.19;5045305;28;20068;-66
2021/12/28 02:30:21;;;;;;;1999.90;999.90;;;;;;;-4.31;100.00;161256.78;5039515;28;20081;-66
2021/12/28 02:32:49;;;;;;;1999.90;999.90;;;;;;;-3.82;99.30;161386.25;5040230;28;20056;-65
2021/12/28 02:35:19;;;;;;;1999.90;999.90;;;;;;;-4.65;100.00;161166.84;5048774;28;20083;-64
2021/12/28 02:37:47;;;;;;;1999.90;999.90;;;;;;;-4.72;100.00;161147.75;5044584;28;20084;-64
2021/12/28 02:40:17;;;;;;;1999.90;999.90;;;;;;;-4.62;100.00;161173.66;5075249;28;20203;-64
2021/12/28 02:42:44;;;;;;;1999.90;999.90;;;;;;;-4.33;100.00;161249.94;5039628;28;20378;-65
2021/12/28 02:45:19;;;;;;;1999.90;999.90;;;;;;;-3.74;98.78;161408.09;5043864;28;20114;-65
2021/12/28 02:47:46;;;;;;;1999.90;999.90;;;;;;;-4.09;98.69;161315.38;5045044;28;20055;-65
2021/12/28 02:50:35;;;;;;;1999.90;999.90;;;;;;;-4.64;100.00;161168.25;5043514;28;20087;-65
2021/12/28 02:53:02;;;;;;;1999.90;999.90;;;;;;;-4.08;100.00;161316.72;5039368;28;20547;-65
2021/12/28 02:55:32;;;;;;;1999.90;999.90;;;;;;;-4.06;99.71;161322.22;5036957;28;20377;-65
2021/12/28 02:58:03;;;;;;;1999.90;999.90;;;;;;;-4.51;100.00;161203.66;5037321;28;20120;-65
2021/12/28 03:00:43;;;;;;;1999.90;999.90;;;;;;;-4.46;100.00;161215.91;5043324;28;20122;-65
2021/12/28 03:03:16;;;;;;;1999.90;999.90;;;;;;;-4.37;100.00;161239.09;5040356;28;20084;-64
2021/12/28 03:05:45;;;;;;;1999.90;999.90;;;;;;;-4.46;100.00;161215.91;5045496;28;20475;-65
2021/12/28 03:08:14;;;;;;;1999.90;999.90;;;;;;;-4.00;99.62;161338.56;5038630;28;20072;-65
2021/12/28 03:10:43;;;;;;;1999.90;999.90;;;;;;;-4.48;100.00;161211.81;5045159;28;20069;-65
2021/12/28 03:13:16;;;;;;;1999.90;999.90;;;;;;;-4.86;100.00;161111.00;5047690;28;20182;-66
2021/12/28 03:15:43;;;;;;;1999.90;999.90;;;;;;;-4.63;100.00;161172.31;5042214;28;20382;-65
2021/12/28 03:18:10;;;;;;;1999.90;999.90;;;;;;;-4.07;99.67;161320.81;5034880;28;20377;-65
2021/12/28 03:20:36;;;;;;;1999.90;999.90;;;;;;;-4.39;100.00;161235.00;5038968;28;20446;-66
2021/12/28 03:23:04;;;;;;;1999.90;999.90;;;;;;;-4.43;100.00;161224.09;5038196;28;20376;-65
2021/12/28 03:25:31;;;;;;;1999.90;999.90;;;;;;;-4.30;99.99;161259.50;5047753;28;20081;-65
2021/12/28 03:28:00;;;;;;;1999.90;999.90;;;;;;;-4.36;99.62;161243.16;5043912;28;20087;-65
2021/12/28 03:30:27;;;;;;;1999.90;999.90;;;;;;;-4.77;100.00;161134.16;5046956;28;20457;-65
2021/12/28 03:32:53;;;;;;;1999.90;999.90;;;;;;;-4.48;100.00;161210.44;5034232;28;20331;-66
2021/12/28 03:35:20;;;;;;;1999.90;999.90;;;;;;;-4.37;99.55;161239.09;5044517;28;20132;-66
2021/12/28 03:37:46;;;;;;;1999.90;999.90;;;;;;;-3.81;98.58;161387.59;5039993;28;20088;-66
2021/12/28 03:40:15;;;;;;;1999.90;999.90;;;;;;;-4.16;98.09;161294.94;5048260;28;20053;-65
2021/12/28 03:42:42;;;;;;;1999.90;999.90;;;;;;;-4.06;98.01;161322.22;5042789;28;20073;-65
2021/12/28 03:45:10;;;;;;;1999.90;999.90;;;;;;;-3.87;97.24;161371.25;5043697;28;20072;-65
2021/12/28 03:47:37;;;;;;;1999.90;999.90;;;;;;;-3.78;96.85;161397.19;5038419;28;20053;-65
2021/12/28 03:50:07;;;;;;;1999.90;999.90;;;;;;;-4.29;98.86;161262.25;5040380;28;20402;-65
2021/12/28 03:52:34;;;;;;;1999.90;999.90;;;;;;;-3.70;96.51;161417.59;5042972;28;20126;-65
2021/12/28 03:55:00;;;;;;;1999.90;999.90;;;;;;;-4.07;97.48;161319.47;5037480;28;20049;-65
2021/12/28 03:57:27;;;;;;;1999.90;999.90;;;;;;;-4.07;98.26;161320.81;5042155;28;20396;-65
2021/12/28 03:59:53;;;;;;;1999.90;999.90;;;;;;;-3.68;96.83;161423.03;5042346;28;20081;-66
2021/12/28 04:02:20;;;;;;;1999.90;999.90;;;;;;;-3.83;96.80;161382.16;5040263;28;20079;-66
2021/12/28 04:04:47;;;;;;;1999.90;999.90;;;;;;;-3.81;97.07;161389.00;5040735;28;20045;-65
2021/12/28 04:07:18;;;;;;;1999.90;999.90;;;;;;;-4.52;99.56;161199.56;5039268;28;20087;-65
2021/12/28 04:09:58;;;;;;;1999.90;999.90;;;;;;;-4.39;99.61;161233.59;5042336;28;20476;-65
2021/12/28 04:12:25;;;;;;;1999.90;999.90;;;;;;;-3.67;97.31;161424.44;5040616;28;20426;-66
2021/12/28 04:14:51;;;;;;;1999.90;999.90;;;;;;;-3.89;97.73;161367.16;5046925;28;20080;-66
2021/12/28 04:17:18;;;;;;;1999.90;999.90;;;;;;;-5.00;100.00;161072.84;5039772;28;20163;-66
2021/12/28 04:19:45;;;;;;;1999.90;999.90;;;;;;;-4.66;100.00;161162.75;5045245;28;20080;-65
2021/12/28 04:22:12;;;;;;;1999.90;999.90;;;;;;;-3.93;100.00;161356.25;5035597;28;20103;-65
2021/12/28 04:24:38;;;;;;;1999.90;999.90;;;;;;;-3.26;96.70;161534.88;5042690;28;20044;-65
2021/12/28 04:27:21;;;;;;;1999.90;999.90;;;;;;;-3.96;98.53;161349.47;5040048;28;20130;-65
2021/12/28 04:29:48;;;;;;;1999.90;999.90;;;;;;;-4.57;100.00;161187.31;5039620;28;20049;-65
2021/12/28 04:32:15;;;;;;;1999.90;999.90;;;;;;;-3.97;100.00;161346.72;5042035;28;20540;-65
2021/12/28 04:34:42;;;;;;;1999.90;999.90;;;;;;;-4.45;100.00;161220.00;5041955;28;20419;-65
2021/12/28 04:37:08;;;;;;;1999.90;999.90;;;;;;;-3.84;100.00;161379.44;5040759;28;20053;-65
2021/12/28 04:39:36;;;;;;;1999.90;999.90;;;;;;;-3.68;99.12;161421.69;5039397;28;20548;-65
2021/12/28 04:42:03;;;;;;;1999.90;999.90;;;;;;;-3.91;98.84;161363.06;5038384;28;20385;-65
2021/12/28 04:44:30;;;;;;;1999.90;999.90;;;;;;;-4.00;100.00;161338.56;5033998;28;20080;-65
2021/12/28 04:46:56;;;;;;;1999.90;999.90;;;;;;;-4.07;100.00;161319.47;5041853;28;20500;-65
2021/12/28 04:49:25;;;;;;;1999.90;999.90;;;;;;;-4.48;100.00;161210.44;5042984;28;20052;-65
2021/12/28 04:51:52;;;;;;;1999.90;999.90;;;;;;;-4.48;100.00;161210.44;5039113;28;20073;-65
2021/12/28 04:54:20;;;;;;;1999.90;999.90;;;;;;;-4.48;100.00;161211.81;5042025;28;20053;-65
2021/12/28 04:56:47;;;;;;;1999.90;999.90;;;;;;;-4.05;100.00;161324.91;5038808;28;20097;-65
2021/12/28 04:59:17;;;;;;;1999.90;999.90;;;;;;;-4.66;100.00;161164.16;5038465;28;20063;-65
2021/12/28 05:01:44;;;;;;;1999.90;999.90;;;;;;;-4.32;100.00;161252.69;5042865;28;20041;-65
2021/12/28 05:04:11;;;;;;;1999.90;999.90;;;;;;;-3.98;100.00;161342.66;5037290;28;20053;-66
2021/12/28 05:06:38;;;;;;;1999.90;999.90;;;;;;;-4.01;100.00;161335.81;5042448;28;20084;-65
2021/12/28 05:09:10;;;;;;;1999.90;999.90;;;;;;;-4.63;100.00;161170.94;5035459;28;20131;-65
2021/12/28 05:11:38;;;;;;;1999.90;999.90;;;;;;;-4.45;100.00;161220.00;5044603;28;20513;-65
2021/12/28 05:14:05;;;;;;;1999.90;999.90;;;;;;;-4.41;100.00;161229.53;5042065;28;20453;-65
2021/12/28 05:16:33;;;;;;;1999.90;999.90;;;;;;;-4.12;100.00;161305.84;5045560;28;20081;-65
2021/12/28 05:19:02;;;;;;;1999.90;999.90;;;;;;;-4.50;100.00;161206.34;5043055;28;20045;-65
2021/12/28 05:21:29;;;;;;;1999.90;999.90;;;;;;;-4.30;100.00;161259.50;5044410;28;20137;-65
2021/12/28 05:23:56;;;;;;;1999.90;999.90;;;;;;;-4.45;100.00;161218.59;5044225;28;20045;-66
2021/12/28 05:26:23;;;;;;;1999.90;999.90;;;;;;;-4.66;100.00;161162.75;5042697;28;20110;-66
2021/12/28 05:28:50;;;;;;;1999.90;999.90;;;;;;;-4.17;100.00;161292.19;5041137;28;20201;-66
2021/12/28 05:31:17;;;;;;;1999.90;999.90;;;;;;;-3.75;100.00;161405.34;5043687;28;20103;-65
2021/12/28 05:33:44;;;;;;;1999.90;999.90;;;;;;;-4.02;100.00;161333.13;5041795;28;20423;-65
2021/12/28 05:36:11;;;;;;;1999.90;999.90;;;;;;;-3.70;100.00;161417.59;5042620;28;20091;-65
2021/12/28 05:38:38;;;;;;;1999.90;999.90;;;;;;;-3.30;100.00;161523.97;5043484;28;20099;-66
2021/12/28 05:41:06;;;;;;;1999.90;999.90;;;;;;;-3.34;100.00;161513.03;5042960;28;20088;-66
2021/12/28 05:43:32;;;;;;;1999.90;999.90;;;;;;;-3.72;100.00;161413.53;5037016;28;20440;-66
2021/12/28 05:45:59;;;;;;;1999.90;999.90;;;;;;;-3.34;100.00;161511.69;5046990;28;20126;-65
2021/12/28 05:48:25;;;;;;;1999.90;999.90;;;;;;;-4.13;100.00;161304.47;5044277;28;20473;-65
2021/12/28 05:50:52;;;;;;;1999.90;999.90;;;;;;;-2.86;99.68;161641.28;5042715;28;20049;-65
2021/12/28 05:53:19;;;;;;;1999.90;999.90;;;;;;;-2.94;98.76;161619.44;5041243;28;20048;-66
2021/12/28 05:55:45;;;;;;;1999.90;999.90;;;;;;;-2.64;97.36;161698.53;5041285;28;20068;-65
2021/12/28 05:58:12;;;;;;;1999.90;999.90;;;;;;;-2.54;96.76;161725.84;5046308;28;20084;-66
2021/12/28 06:00:39;;;;;;;1999.90;999.90;;;;;;;-3.04;98.51;161592.13;5040704;28;20102;-66
2021/12/28 06:03:06;;;;;;;1999.90;999.90;;;;;;;-3.21;99.10;161548.50;5038927;28;20068;-66
2021/12/28 06:05:33;;;;;;;1999.90;999.90;;;;;;;-3.73;100.00;161409.44;5041728;28;20096;-65
2021/12/28 06:07:59;;;;;;;1999.90;999.90;;;;;;;-3.72;100.00;161413.53;5043200;28;20139;-65
2021/12/28 06:10:26;;;;;;;1999.90;999.90;;;;;;;-3.89;100.00;161367.16;5042616;28;20107;-65
2021/12/28 06:12:52;;;;;;;1999.90;999.90;;;;;;;-3.85;100.00;161376.72;5037946;28;20064;-66
2021/12/28 06:15:19;;;;;;;1999.90;999.90;;;;;;;-3.86;100.00;161374.00;5045209;28;20083;-66
2021/12/28 06:17:45;;;;;;;1999.90;999.90;;;;;;;-4.09;100.00;161314.03;5050783;28;20099;-66
2021/12/28 06:20:12;;;;;;;1999.90;999.90;;;;;;;-3.95;100.00;161350.81;5043801;28;20052;-66
2021/12/28 06:22:39;;;;;;;1999.90;999.90;;;;;;;-3.84;100.00;161380.81;5041422;28;20048;-66
2021/12/28 06:25:10;;;;;;;;;;;;;;;-4.03;100.00;161330.38;5038272;28;20053;-66
2021/12/28 06:27:37;;;;;;;1999.90;999.90;;;;;;;-4.13;100.00;161303.13;5040291;28;19972;-66
2021/12/28 06:30:04;;;;;;;1999.90;999.90;;;;;;;-3.99;100.00;161339.91;5048167;28;20095;-66
2021/12/28 06:32:31;;;;;;;1999.90;999.90;;;;;;;-4.31;100.00;161256.78;5050484;28;20080;-66
2021/12/28 06:34:57;;;;;;;1999.90;999.90;;;;;;;-3.86;100.00;161375.34;5041702;28;20081;-66
2021/12/28 06:37:24;;;;;;;1999.90;999.90;;;;;;;-3.81;100.00;161387.59;5034071;28;20053;-66
2021/12/28 06:39:51;;;;;;;1999.90;999.90;;;;;;;-3.52;100.00;161463.97;5040525;28;20055;-65
2021/12/28 06:42:17;;;;;;;1999.90;999.90;;;;;;;-3.82;100.00;161384.91;5037478;28;20354;-66
2021/12/28 06:44:46;;;;;;;1999.90;999.90;;;;;;;-3.85;100.00;161376.72;5039459;28;20044;-66
2021/12/28 06:47:13;;;;;;;1999.90;999.90;;;;;;;-3.51;100.00;161466.66;5043012;28;20053;-66
2021/12/28 06:49:40;;;;;;;1999.90;999.90;;;;;;;-3.61;100.00;161440.78;5039375;28;20099;-66
2021/12/28 06:52:07;;;;;;;1999.90;999.90;;;;;;;-3.45;100.00;161484.41;5038259;28;20083;-66
2021/12/28 06:54:39;;;;;;;1999.90;999.90;;;;;;;-3.65;100.00;161431.22;5045904;28;20507;-66
2021/12/28 06:57:08;;;;;;;1999.90;999.90;;;;;;;-3.74;100.00;161408.09;5047491;28;20057;-66
2021/12/28 06:59:37;;;;;;;1999.90;999.90;;;;;;;-3.59;100.00;161446.22;5039093;28;20549;-66
2021/12/28 07:02:05;;;;;;;1999.90;999.90;;;;;;;-3.87;100.00;161371.25;5044559;28;20060;-65
2021/12/28 07:04:33;;;;;;;1999.90;999.90;;;;;;;-4.16;100.00;161294.94;5046707;28;20053;-66
2021/12/28 07:06:59;;;;;;;1999.90;999.90;;;;;;;-4.17;100.00;161292.19;5037309;28;20082;-66
2021/12/28 07:09:26;;;;;;;1999.90;999.90;;;;;;;-3.81;100.00;161387.59;5038501;28;20389;-66
2021/12/28 07:11:52;;;;;;;1999.90;999.90;;;;;;;-3.92;100.00;161360.34;5043938;28;20160;-66
2021/12/28 07:14:19;;;;;;;1999.90;999.90;;;;;;;-4.43;100.00;161224.09;5038172;28;20049;-66
2021/12/28 07:16:45;;;;;;;1999.90;999.90;;;;;;;-4.09;100.00;161314.03;5045192;28;20076;-66
2021/12/28 07:19:12;;;;;;;1999.90;999.90;;;;;;;-3.96;100.00;161349.47;5044995;28;20045;-66
2021/12/28 07:21:40;;;;;;;1999.90;999.90;;;;;;;-4.05;100.00;161323.56;5041118;28;20041;-65
2021/12/28 07:24:08;;;;;;;1999.90;999.90;;;;;;;-3.76;100.00;161401.25;5044206;28;20057;-66
2021/12/28 07:26:36;;;;;;;1999.90;999.90;;;;;;;-3.92;100.00;161360.34;5046166;28;20049;-66
2021/12/28 07:29:03;;;;;;;1999.90;999.90;;;;;;;-3.64;100.00;161433.97;5039454;28;20106;-66
2021/12/28 07:31:31;;;;;;;1999.90;999.90;;;;;;;-2.99;100.00;161605.81;5038922;28;20489;-66
2021/12/28 07:33:58;;;;;;;1999.90;999.90;;;;;;;-3.55;100.00;161458.50;5043894;28;20042;-66
2021/12/28 07:36:24;;;;;;;1999.90;999.90;;;;;;;-4.14;100.00;161300.38;5043325;28;20084;-66
2021/12/28 07:38:51;;;;;;;1999.90;999.90;;;;;;;-4.08;100.00;161316.72;5045792;28;20076;-66
2021/12/28 07:41:18;;;;;;;1999.90;999.90;;;;;;;-3.83;100.00;161383.50;5034688;28;20122;-66
2021/12/28 07:43:44;;;;;;;1999.90;999.90;;;;;;;-3.91;100.00;161361.72;5043305;28;20071;-66
2021/12/28 07:46:11;;;;;;;1999.90;999.90;;;;;;;-3.71;100.00;161414.88;5046827;28;20071;-66
2021/12/28 07:48:38;;;;;;;1999.90;999.90;;;;;;;-3.57;100.00;161453.06;5047367;28;20128;-66
2021/12/28 07:51:05;;;;;;;1999.90;999.90;;;;;;;-4.02;100.00;161333.13;5041784;28;20111;-66
2021/12/28 07:53:32;;;;;;;1999.90;999.90;;;;;;;-4.39;100.00;161233.59;5046016;28;20371;-66
2021/12/28 07:55:59;;;;;;;1999.90;999.90;;;;;;;-3.66;100.00;161428.53;5039627;28;20112;-66
2021/12/28 07:58:26;;;;;;;1999.90;999.90;;;;;;;-2.98;100.00;161608.50;5041483;28;20084;-66
2021/12/28 08:00:52;;;;;;;1999.90;999.90;;;;;;;-3.36;100.00;161507.59;5040110;28;20049;-66
2021/12/28 08:03:19;;;;;;;1999.90;999.90;;;;;;;-3.47;100.00;161477.59;5043794;28;20040;-66
2021/12/28 08:05:46;;;;;;;1999.90;999.90;;;;;;;-3.73;100.00;161410.78;5045532;28;20461;-66
2021/12/28 08:08:12;;;;;;;1999.90;999.90;;;;;;;-3.61;100.00;161442.13;5035851;28;20053;-66
2021/12/28 08:10:40;;;;;;;1999.90;999.90;;;;;;;-3.99;100.00;161341.28;5043638;28;20052;-66
2021/12/28 08:13:07;;;;;;;1999.90;999.90;;;;;;;-3.34;100.00;161511.69;5041019;28;20333;-66
2021/12/28 08:15:33;;;;;;;1999.90;999.90;;;;;;;-2.99;100.00;161604.41;5043454;28;20257;-66
2021/12/28 08:18:03;;;;;;;1999.90;999.90;;;;;;;-2.75;100.00;161668.56;5041139;28;20045;-66
2021/12/28 08:20:30;;;;;;;1999.90;999.90;;;;;;;-3.26;100.00;161534.88;5042243;28;20095;-66
2021/12/28 08:22:57;;;;;;;1999.90;999.90;;;;;;;-3.11;100.00;161573.03;5049116;28;20080;-66
2021/12/28 08:25:24;;;;;;;1999.90;999.90;;;;;;;-2.81;99.89;161652.16;5041444;28;20098;-66
2021/12/28 08:27:51;;;;;;;1999.90;999.90;;;;;;;-2.71;99.49;161679.44;5044589;28;20076;-66
2021/12/28 08:30:19;;;;;;;1999.90;999.90;;;;;;;-2.54;98.21;161724.50;5040697;28;20084;-66
2021/12/28 08:32:47;;;;;;;1999.90;999.90;;;;;;;-3.20;100.00;161551.25;5039380;28;20602;-66
2021/12/28 08:35:15;;;;;;;1999.90;999.90;;;;;;;-2.56;99.51;161720.41;5045995;28;20107;-66
2021/12/28 08:37:42;;;;;;;1999.90;999.90;;;;;;;-2.73;99.00;161674.00;5038281;28;20099;-67
2021/12/28 08:40:12;;;;;;;1999.90;999.90;;;;;;;-2.87;99.33;161638.53;5044508;28;20053;-66
2021/12/28 08:42:38;;;;;;;1999.90;999.90;;;;;;;-2.27;98.00;161796.81;5037209;28;20417;-66
2021/12/28 08:45:06;;;;;;;1999.90;999.90;;;;;;;-2.39;97.98;161764.06;5040416;28;20057;-66
2021/12/28 08:47:33;;;;;;;1999.90;999.90;;;;;;;-3.15;100.00;161562.16;5036921;28;20057;-66
2021/12/28 08:50:00;;;;;;;1999.90;999.90;;;;;;;-2.20;98.96;161815.91;5039960;28;20100;-66
2021/12/28 08:52:27;;;;;;;1999.90;999.90;;;;;;;-1.54;95.76;161989.31;5041515;28;20110;-66
2021/12/28 08:54:54;;;;;;;1999.90;999.90;;;;;;;-2.04;96.62;161856.84;5033506;28;20089;-66
2021/12/28 08:57:21;;;;;;;1999.90;999.90;;;;;;;-1.82;95.99;161916.91;5041131;28;20174;-66
2021/12/28 08:59:47;;;;;;;1999.90;999.90;;;;;;;-1.46;94.26;162012.53;5033550;28;20204;-66
2021/12/28 09:02:14;;;;;;;1999.90;999.90;;;;;;;-1.39;93.82;162028.91;5046596;28;20049;-66
2021/12/28 09:04:43;;;;;;;1999.90;999.90;;;;;;;-1.39;93.63;162030.25;5041722;28;20414;-66
2021/12/28 09:07:10;;;;;;;1999.90;999.90;;;;;;;-0.99;92.97;162135.44;5039223;28;20045;-66
2021/12/28 09:09:37;;;;;;;1999.90;999.90;;;;;;;-1.28;92.37;162058.91;5041407;28;20342;-66
2021/12/28 09:12:05;;;;;;;1999.90;999.90;;;;;;;-1.33;93.19;162045.28;5037440;28;20081;-67
2021/12/28 09:14:34;;;;;;;1999.90;999.90;;;;;;;-1.49;93.89;162004.34;5043858;28;20095;-66
2021/12/28 09:17:02;;;;;;;1999.90;999.90;;;;;;;-1.69;93.58;161949.72;5037308;28;20128;-66
2021/12/28 09:19:30;;;;;;;1999.90;999.90;;;;;;;-1.53;94.10;161993.41;5042718;28;20072;-66
2021/12/28 09:22:20;;;;;;;1999.90;999.90;;;;;;;-1.77;94.74;161929.25;5042028;28;20275;-66
2021/12/28 09:24:47;;;;;;;1999.90;999.90;;;;;;;-2.21;96.49;161813.19;5045121;28;20103;-66
2021/12/28 09:27:19;;;;;;;1999.90;999.90;;;;;;;-2.33;96.78;161780.44;5037732;28;20350;-66
2021/12/28 09:29:45;;;;;;;1999.90;999.90;;;;;;;-1.82;96.33;161916.91;5040914;28;20434;-66
2021/12/28 09:32:16;;;;;;;1999.90;999.90;;;;;;;-1.51;94.81;161998.84;5036316;28;20095;-66
2021/12/28 09:34:45;;;;;;;1999.90;999.90;;;;;;;-1.48;94.23;162005.69;5041540;28;20381;-66
2021/12/28 09:37:12;;;;;;;1999.90;999.90;;;;;;;-0.95;92.92;162147.75;5038038;28;20076;-67
2021/12/28 09:39:38;;;;;;;1999.90;999.90;;;;;;;-1.12;92.96;162101.28;5035304;28;20112;-67
2021/12/28 09:42:05;;;;;;;1999.90;999.90;;;;;;;-1.34;93.62;162042.53;5040610;28;20052;-67
2021/12/28 09:44:34;;;;;;;1999.90;999.90;;;;;;;-1.81;95.68;161919.66;5040192;28;20319;-65
2021/12/28 09:47:02;;;;;;;1999.90;999.90;;;;;;;-1.71;96.10;161944.22;5041656;28;20040;-65
2021/12/28 09:49:28;;;;;;;1999.90;999.90;;;;;;;-1.54;95.50;161990.66;5043381;28;20101;-65
2021/12/28 09:51:57;;;;;;;1999.90;999.90;;;;;;;-1.49;94.98;162004.34;5042484;28;20122;-66
2021/12/28 09:54:25;;;;;;;1999.90;999.90;;;;;;;-0.97;93.66;162140.88;5035294;28;20042;-65
2021/12/28 09:56:55;;;;;;;1999.90;999.90;;;;;;;-1.02;93.28;162128.59;5043927;28;20067;-66
2021/12/28 09:59:26;;;;;;;1999.90;999.90;;;;;;;-1.55;93.90;161986.56;5045414;28;20071;-65
2021/12/28 10:01:53;;;;;;;1999.90;999.90;;;;;;;-0.72;92.70;162209.19;5041190;28;20055;-66
2021/12/28 10:04:20;;;;;;;1999.90;999.90;;;;;;;-0.82;92.51;162181.91;5045322;28;20131;-66
2021/12/28 10:06:47;;;;;;;1999.90;999.90;;;;;;;-1.32;93.53;162048.03;5043314;28;20088;-66
2021/12/28 10:09:16;;;;;;;1999.90;999.90;;;;;;;-1.42;94.44;162023.41;5038932;28;20080;-66
2021/12/28 10:11:56;;;;;;;1999.90;999.90;;;;;;;-0.90;94.09;162161.38;5048178;28;20076;-66
2021/12/28 10:14:28;;;;;;;1999.90;999.90;;;;;;;-0.73;92.62;162205.09;5040622;28;20103;-66
2021/12/28 10:16:57;;;;;;;1999.90;999.90;;;;;;;-0.53;91.88;162258.41;5044828;28;20431;-66
2021/12/28 10:19:36;;;;;;;1999.90;999.90;;;;;;;-0.75;92.80;162199.66;5036085;28;20193;-66
2021/12/28 10:22:21;;;;;;;1999.90;999.90;;;;;;;-0.12;91.12;162367.78;5033618;28;20481;-66
2021/12/28 10:24:57;;;;;;;1999.90;999.90;;;;;;;-0.13;90.22;162365.03;5041496;28;20504;-66
2021/12/28 10:27:27;;;;;;;1999.90;999.90;;;;;;;-0.66;91.98;162222.88;5043133;28;20105;-66
2021/12/28 10:29:55;;;;;;;1999.90;999.90;;;;;;;-0.37;91.93;162302.16;5045498;28;20102;-66
2021/12/28 10:32:25;;;;;;;1999.90;999.90;;;;;;;-0.20;90.68;162347.22;5043354;28;20451;-66
2021/12/28 10:34:57;;;;;;;1999.90;999.90;;;;;;;-0.28;91.76;162325.38;5045185;28;20037;-66
2021/12/28 10:37:49;;;;;;;1999.90;999.90;;;;;;;-0.63;93.20;162232.44;5042608;28;20077;-66
2021/12/28 10:40:21;;;;;;;;;;;;;;;-0.80;93.45;162187.34;5043673;28;20445;-66
2021/12/28 10:42:58;;;;;;;1999.90;999.90;;;;;;;-1.01;95.04;162129.94;5039476;28;19960;-67
2021/12/28 10:46:01;;;;;;;1999.90;999.90;;;;;;;-0.97;95.24;162140.88;5044437;28;20063;-67
2021/12/28 10:48:37;;;;;;;1999.90;999.90;;;;;;;-0.71;94.76;162211.94;5042467;28;20041;-67
2021/12/28 10:51:13;;;;;;;1999.90;999.90;;;;;;;-0.87;95.75;162168.22;5041342;28;20052;-67